Terminal Aerodrome Forecast
Issued by NWS

Home | Current Version | Previous Version | Text Only | Print | Product List | Glossary On
Versions: 1 2 3 4 5 6 7 8 9 10 11 12 13 14 15 16
000
FTAK31 PANC 032340
TAFAIL
TAF
PAIL 032340Z 0400/0424 32020G30KT P6SM SKC WS020/34050KT
     FM040300 32016G24KT P6SM SKC
     FM041200 34012G20KT P6SM SKC=

USA.gov is the U.S. government's official web portal to all federal, state and local government web resources and services.